sensor_id;sensor_type;location;lat;lon;timestamp;temperature;humidity
37938;DHT22;23763;48.130;11.602;2022-10-16T00:00:36;14.20;99.90
37938;DHT22;23763;48.130;11.602;2022-10-16T00:03:03;14.20;99.90
37938;DHT22;23763;48.130;11.602;2022-10-16T00:05:29;14.10;99.90
37938;DHT22;23763;48.130;11.602;2022-10-16T00:07:55;14.10;99.90
37938;DHT22;23763;48.130;11.602;2022-10-16T00:10:20;14.10;99.90
37938;DHT22;23763;48.130;11.602;2022-10-16T00:12:46;14.10;99.90
37938;DHT22;23763;48.130;11.602;2022-10-16T00:15:12;14.10;99.90
37938;DHT22;23763;48.130;11.602;2022-10-16T00:17:37;14.10;99.90
37938;DHT22;23763;48.130;11.602;2022-10-16T00:20:03;14.10;99.90
37938;DHT22;23763;48.130;11.602;2022-10-16T00:22:29;14.10;99.90
37938;DHT22;23763;48.130;11.602;2022-10-16T00:24:55;14.10;99.90
37938;DHT22;23763;48.130;11.602;2022-10-16T00:27:20;14.00;99.90
37938;DHT22;23763;48.130;11.602;2022-10-16T00:29:50;14.00;99.90
37938;DHT22;23763;48.130;11.602;2022-10-16T00:32:17;14.00;99.90
37938;DHT22;23763;48.130;11.602;2022-10-16T00:34:43;14.00;99.90
37938;DHT22;23763;48.130;11.602;2022-10-16T00:37:08;14.00;99.90
37938;DHT22;23763;48.130;11.602;2022-10-16T00:39:34;13.90;99.90
37938;DHT22;23763;48.130;11.602;2022-10-16T00:42:00;13.90;99.90
37938;DHT22;23763;48.130;11.602;2022-10-16T00:44:47;13.80;99.90
37938;DHT22;23763;48.130;11.602;2022-10-16T00:47:42;13.80;99.90
37938;DHT22;23763;48.130;11.602;2022-10-16T00:50:31;13.80;99.90
37938;DHT22;23763;48.130;11.602;2022-10-16T00:52:59;13.80;99.90
37938;DHT22;23763;48.130;11.602;2022-10-16T00:55:26;13.80;99.90
37938;DHT22;23763;48.130;11.602;2022-10-16T00:57:53;13.80;99.90
37938;DHT22;23763;48.130;11.602;2022-10-16T01:00:24;13.80;99.90
37938;DHT22;23763;48.130;11.602;2022-10-16T01:02:54;13.80;99.90
37938;DHT22;23763;48.130;11.602;2022-10-16T01:05:22;13.80;99.90
37938;DHT22;23763;48.130;11.602;2022-10-16T01:08:12;13.80;99.90
37938;DHT22;23763;48.130;11.602;2022-10-16T01:11:03;13.80;99.90
37938;DHT22;23763;48.130;11.602;2022-10-16T01:13:41;13.80;99.90
37938;DHT22;23763;48.130;11.602;2022-10-16T01:16:13;13.80;99.90
37938;DHT22;23763;48.130;11.602;2022-10-16T01:21:17;13.70;99.90
37938;DHT22;23763;48.130;11.602;2022-10-16T01:32:36;13.50;99.90
37938;DHT22;23763;48.130;11.602;2022-10-16T01:35:14;13.60;99.90
37938;DHT22;23763;48.130;11.602;2022-10-16T01:40:32;13.50;99.90
37938;DHT22;23763;48.130;11.602;2022-10-16T01:43:19;13.60;99.90
37938;DHT22;23763;48.130;11.602;2022-10-16T01:45:46;13.60;99.90
37938;DHT22;23763;48.130;11.602;2022-10-16T01:48:16;13.60;99.90
37938;DHT22;23763;48.130;11.602;2022-10-16T01:50:45;13.60;99.90
37938;DHT22;23763;48.130;11.602;2022-10-16T01:53:15;13.60;99.90
37938;DHT22;23763;48.130;11.602;2022-10-16T01:55:45;13.60;99.90
37938;DHT22;23763;48.130;11.602;2022-10-16T01:58:14;13.60;99.90
37938;DHT22;23763;48.130;11.602;2022-10-16T02:00:43;13.60;99.90
37938;DHT22;23763;48.130;11.602;2022-10-16T02:03:11;13.70;99.90
37938;DHT22;23763;48.130;11.602;2022-10-16T02:08:08;13.70;99.90
37938;DHT22;23763;48.130;11.602;2022-10-16T02:10:35;13.70;99.90
37938;DHT22;23763;48.130;11.602;2022-10-16T02:15:59;13.70;99.90
37938;DHT22;23763;48.130;11.602;2022-10-16T02:18:25;13.70;99.90
37938;DHT22;23763;48.130;11.602;2022-10-16T02:23:49;13.70;99.90
37938;DHT22;23763;48.130;11.602;2022-10-16T02:26:23;13.80;99.90
37938;DHT22;23763;48.130;11.602;2022-10-16T02:28:55;13.70;99.90
37938;DHT22;23763;48.130;11.602;2022-10-16T02:31:31;13.60;99.90
37938;DHT22;23763;48.130;11.602;2022-10-16T02:34:01;13.60;99.90
37938;DHT22;23763;48.130;11.602;2022-10-16T02:36:29;13.50;99.90
37938;DHT22;23763;48.130;11.602;2022-10-16T02:38:55;13.50;99.90
37938;DHT22;23763;48.130;11.602;2022-10-16T02:41:22;13.50;99.90
37938;DHT22;23763;48.130;11.602;2022-10-16T02:43:48;13.50;99.90
37938;DHT22;23763;48.130;11.602;2022-10-16T02:46:15;13.50;99.90
37938;DHT22;23763;48.130;11.602;2022-10-16T02:48:40;13.40;99.90
37938;DHT22;23763;48.130;11.602;2022-10-16T02:51:06;13.40;99.90
37938;DHT22;23763;48.130;11.602;2022-10-16T02:53:32;13.40;99.90
37938;DHT22;23763;48.130;11.602;2022-10-16T02:55:57;13.40;99.90
37938;DHT22;23763;48.130;11.602;2022-10-16T02:58:23;13.30;99.90
37938;DHT22;23763;48.130;11.602;2022-10-16T03:00:48;13.30;99.90
37938;DHT22;23763;48.130;11.602;2022-10-16T03:03:14;13.30;99.90
37938;DHT22;23763;48.130;11.602;2022-10-16T03:05:40;13.30;99.90
37938;DHT22;23763;48.130;11.602;2022-10-16T03:08:05;13.20;99.90
37938;DHT22;23763;48.130;11.602;2022-10-16T03:10:31;13.20;99.90
37938;DHT22;23763;48.130;11.602;2022-10-16T03:12:56;13.20;99.90
37938;DHT22;23763;48.130;11.602;2022-10-16T03:15:22;13.20;99.90
37938;DHT22;23763;48.130;11.602;2022-10-16T03:17:48;13.20;99.90
37938;DHT22;23763;48.130;11.602;2022-10-16T03:20:13;13.20;99.90
37938;DHT22;23763;48.130;11.602;2022-10-16T03:22:39;13.20;99.90
37938;DHT22;23763;48.130;11.602;2022-10-16T03:25:05;13.20;99.90
37938;DHT22;23763;48.130;11.602;2022-10-16T03:27:31;13.20;99.90
37938;DHT22;23763;48.130;11.602;2022-10-16T03:29:56;13.20;99.90
37938;DHT22;23763;48.130;11.602;2022-10-16T03:32:22;13.20;99.90
37938;DHT22;23763;48.130;11.602;2022-10-16T03:34:50;13.20;99.90
37938;DHT22;23763;48.130;11.602;2022-10-16T03:37:15;13.20;99.90
37938;DHT22;23763;48.130;11.602;2022-10-16T03:39:41;13.20;99.90
37938;DHT22;23763;48.130;11.602;2022-10-16T03:42:07;13.20;99.90
37938;DHT22;23763;48.130;11.602;2022-10-16T03:44:32;13.30;99.90
37938;DHT22;23763;48.130;11.602;2022-10-16T03:46:58;13.30;99.90
37938;DHT22;23763;48.130;11.602;2022-10-16T03:49:23;13.40;99.90
37938;DHT22;23763;48.130;11.602;2022-10-16T03:51:49;13.50;99.90
37938;DHT22;23763;48.130;11.602;2022-10-16T03:54:15;13.50;99.90
37938;DHT22;23763;48.130;11.602;2022-10-16T03:56:40;13.50;99.90
37938;DHT22;23763;48.130;11.602;2022-10-16T03:59:06;13.60;99.90
37938;DHT22;23763;48.130;11.602;2022-10-16T04:01:32;13.60;99.90
37938;DHT22;23763;48.130;11.602;2022-10-16T04:03:57;13.60;99.90
37938;DHT22;23763;48.130;11.602;2022-10-16T04:06:23;13.60;99.90
37938;DHT22;23763;48.130;11.602;2022-10-16T04:08:49;13.70;99.90
37938;DHT22;23763;48.130;11.602;2022-10-16T04:11:15;13.80;99.90
37938;DHT22;23763;48.130;11.602;2022-10-16T04:13:40;13.80;99.90
37938;DHT22;23763;48.130;11.602;2022-10-16T04:16:07;13.80;99.90
37938;DHT22;23763;48.130;11.602;2022-10-16T04:18:32;13.80;99.90
37938;DHT22;23763;48.130;11.602;2022-10-16T04:21:03;13.90;99.90
37938;DHT22;23763;48.130;11.602;2022-10-16T04:23:29;13.90;99.90
37938;DHT22;23763;48.130;11.602;2022-10-16T04:25:55;13.90;99.90
37938;DHT22;23763;48.130;11.602;2022-10-16T04:28:20;13.90;99.90
37938;DHT22;23763;48.130;11.602;2022-10-16T04:30:46;13.90;99.90
37938;DHT22;23763;48.130;11.602;2022-10-16T04:33:11;14.00;99.90
37938;DHT22;23763;48.130;11.602;2022-10-16T04:35:38;13.90;99.90
37938;DHT22;23763;48.130;11.602;2022-10-16T04:38:04;13.90;99.90
37938;DHT22;23763;48.130;11.602;2022-10-16T04:40:29;13.90;99.90
37938;DHT22;23763;48.130;11.602;2022-10-16T04:42:58;13.90;99.90
37938;DHT22;23763;48.130;11.602;2022-10-16T04:45:24;13.90;99.90
37938;DHT22;23763;48.130;11.602;2022-10-16T04:47:50;13.90;99.90
37938;DHT22;23763;48.130;11.602;2022-10-16T04:50:16;13.90;99.90
37938;DHT22;23763;48.130;11.602;2022-10-16T04:52:41;13.90;99.90
37938;DHT22;23763;48.130;11.602;2022-10-16T04:55:07;13.90;99.90
37938;DHT22;23763;48.130;11.602;2022-10-16T04:57:33;13.90;99.90
37938;DHT22;23763;48.130;11.602;2022-10-16T04:59:58;13.90;99.90
37938;DHT22;23763;48.130;11.602;2022-10-16T05:02:24;13.90;99.90
37938;DHT22;23763;48.130;11.602;2022-10-16T05:04:51;13.90;99.90
37938;DHT22;23763;48.130;11.602;2022-10-16T05:07:17;13.90;99.90
37938;DHT22;23763;48.130;11.602;2022-10-16T05:09:42;13.90;99.90
37938;DHT22;23763;48.130;11.602;2022-10-16T05:12:08;13.90;99.90
37938;DHT22;23763;48.130;11.602;2022-10-16T05:14:34;13.90;99.90
37938;DHT22;23763;48.130;11.602;2022-10-16T05:17:00;13.90;99.90
37938;DHT22;23763;48.130;11.602;2022-10-16T05:19:25;13.90;99.90
37938;DHT22;23763;48.130;11.602;2022-10-16T05:21:51;13.90;99.90
37938;DHT22;23763;48.130;11.602;2022-10-16T05:24:17;14.00;99.90
37938;DHT22;23763;48.130;11.602;2022-10-16T05:26:42;14.00;99.90
37938;DHT22;23763;48.130;11.602;2022-10-16T05:29:09;14.00;99.90
37938;DHT22;23763;48.130;11.602;2022-10-16T05:31:34;14.10;99.90
37938;DHT22;23763;48.130;11.602;2022-10-16T05:34:01;14.10;99.90
37938;DHT22;23763;48.130;11.602;2022-10-16T05:36:27;14.10;99.90
37938;DHT22;23763;48.130;11.602;2022-10-16T05:38:53;14.00;99.90
37938;DHT22;23763;48.130;11.602;2022-10-16T05:41:19;14.00;99.90
37938;DHT22;23763;48.130;11.602;2022-10-16T05:43:48;14.00;99.90
37938;DHT22;23763;48.130;11.602;2022-10-16T05:46:14;14.10;99.90
37938;DHT22;23763;48.130;11.602;2022-10-16T05:48:40;14.10;99.90
37938;DHT22;23763;48.130;11.602;2022-10-16T05:51:07;14.20;99.90
37938;DHT22;23763;48.130;11.602;2022-10-16T05:53:35;14.20;99.90
37938;DHT22;23763;48.130;11.602;2022-10-16T05:56:02;14.10;99.90
37938;DHT22;23763;48.130;11.602;2022-10-16T05:58:33;14.10;99.90
37938;DHT22;23763;48.130;11.602;2022-10-16T06:01:10;14.10;99.90
37938;DHT22;23763;48.130;11.602;2022-10-16T06:03:37;14.00;99.90
37938;DHT22;23763;48.130;11.602;2022-10-16T06:06:10;14.00;99.90
37938;DHT22;23763;48.130;11.602;2022-10-16T06:08:37;13.90;99.90
37938;DHT22;23763;48.130;11.602;2022-10-16T06:11:04;13.90;99.90
37938;DHT22;23763;48.130;11.602;2022-10-16T06:13:30;13.90;99.90
37938;DHT22;23763;48.130;11.602;2022-10-16T06:15:58;14.00;99.90
37938;DHT22;23763;48.130;11.602;2022-10-16T06:18:25;14.00;99.90
37938;DHT22;23763;48.130;11.602;2022-10-16T06:20:50;14.10;99.90
37938;DHT22;23763;48.130;11.602;2022-10-16T06:23:16;14.20;99.90
37938;DHT22;23763;48.130;11.602;2022-10-16T06:25:41;14.20;99.90
37938;DHT22;23763;48.130;11.602;2022-10-16T06:28:07;14.20;99.90
37938;DHT22;23763;48.130;11.602;2022-10-16T06:30:33;14.30;99.90
37938;DHT22;23763;48.130;11.602;2022-10-16T06:32:58;14.30;99.90
37938;DHT22;23763;48.130;11.602;2022-10-16T06:35:24;14.30;99.90
37938;DHT22;23763;48.130;11.602;2022-10-16T06:37:50;14.30;99.90
37938;DHT22;23763;48.130;11.602;2022-10-16T06:40:16;14.40;99.90
37938;DHT22;23763;48.130;11.602;2022-10-16T06:42:42;14.50;99.90
37938;DHT22;23763;48.130;11.602;2022-10-16T06:45:08;14.60;99.90
37938;DHT22;23763;48.130;11.602;2022-10-16T06:47:33;14.60;99.90
37938;DHT22;23763;48.130;11.602;2022-10-16T06:49:59;14.70;99.90
37938;DHT22;23763;48.130;11.602;2022-10-16T06:52:28;14.70;99.90
37938;DHT22;23763;48.130;11.602;2022-10-16T06:54:54;14.70;99.90
37938;DHT22;23763;48.130;11.602;2022-10-16T06:57:19;14.70;99.90
37938;DHT22;23763;48.130;11.602;2022-10-16T06:59:45;14.60;99.90
37938;DHT22;23763;48.130;11.602;2022-10-16T07:02:11;14.60;99.90
37938;DHT22;23763;48.130;11.602;2022-10-16T07:04:36;14.60;99.90
37938;DHT22;23763;48.130;11.602;2022-10-16T07:07:02;14.60;99.90
37938;DHT22;23763;48.130;11.602;2022-10-16T07:09:28;14.60;99.90
37938;DHT22;23763;48.130;11.602;2022-10-16T07:11:54;14.70;99.90
37938;DHT22;23763;48.130;11.602;2022-10-16T07:14:21;14.70;99.90
37938;DHT22;23763;48.130;11.602;2022-10-16T07:16:47;14.80;99.90
37938;DHT22;23763;48.130;11.602;2022-10-16T07:19:14;14.70;99.90
37938;DHT22;23763;48.130;11.602;2022-10-16T07:21:41;14.80;99.90
37938;DHT22;23763;48.130;11.602;2022-10-16T07:24:11;14.80;99.90
37938;DHT22;23763;48.130;11.602;2022-10-16T07:26:38;14.90;99.90
37938;DHT22;23763;48.130;11.602;2022-10-16T07:29:06;14.90;99.90
37938;DHT22;23763;48.130;11.602;2022-10-16T07:31:32;15.00;99.90
37938;DHT22;23763;48.130;11.602;2022-10-16T07:33:59;15.10;99.90
37938;DHT22;23763;48.130;11.602;2022-10-16T07:36:25;15.20;99.90
37938;DHT22;23763;48.130;11.602;2022-10-16T07:38:51;15.40;99.90
37938;DHT22;23763;48.130;11.602;2022-10-16T07:41:19;15.50;99.90
37938;DHT22;23763;48.130;11.602;2022-10-16T07:43:53;15.40;99.90
37938;DHT22;23763;48.130;11.602;2022-10-16T07:46:20;15.40;99.90
37938;DHT22;23763;48.130;11.602;2022-10-16T07:48:46;15.50;99.90
37938;DHT22;23763;48.130;11.602;2022-10-16T07:51:20;15.70;99.90
37938;DHT22;23763;48.130;11.602;2022-10-16T07:53:46;15.50;99.90
37938;DHT22;23763;48.130;11.602;2022-10-16T07:56:12;15.60;99.90
37938;DHT22;23763;48.130;11.602;2022-10-16T07:58:38;15.60;99.90
37938;DHT22;23763;48.130;11.602;2022-10-16T08:01:06;15.70;99.90
37938;DHT22;23763;48.130;11.602;2022-10-16T08:03:33;15.80;99.90
37938;DHT22;23763;48.130;11.602;2022-10-16T08:05:59;15.80;99.90
37938;DHT22;23763;48.130;11.602;2022-10-16T08:08:25;15.80;99.90
37938;DHT22;23763;48.130;11.602;2022-10-16T08:10:52;15.90;99.90
37938;DHT22;23763;48.130;11.602;2022-10-16T08:13:18;16.00;99.90
37938;DHT22;23763;48.130;11.602;2022-10-16T08:15:44;16.10;99.90
37938;DHT22;23763;48.130;11.602;2022-10-16T08:18:12;16.20;99.90
37938;DHT22;23763;48.130;11.602;2022-10-16T08:20:39;16.40;99.90
37938;DHT22;23763;48.130;11.602;2022-10-16T08:23:05;16.50;99.90
37938;DHT22;23763;48.130;11.602;2022-10-16T08:25:31;16.70;99.90
37938;DHT22;23763;48.130;11.602;2022-10-16T08:27:56;16.90;99.90
37938;DHT22;23763;48.130;11.602;2022-10-16T08:30:23;16.90;99.90
37938;DHT22;23763;48.130;11.602;2022-10-16T08:32:49;17.00;99.90
37938;DHT22;23763;48.130;11.602;2022-10-16T08:35:15;17.10;99.90
37938;DHT22;23763;48.130;11.602;2022-10-16T08:37:41;17.20;99.90
37938;DHT22;23763;48.130;11.602;2022-10-16T08:40:19;17.20;99.90
37938;DHT22;23763;48.130;11.602;2022-10-16T08:43:05;17.40;99.90
37938;DHT22;23763;48.130;11.602;2022-10-16T08:48:50;17.60;99.90
37938;DHT22;23763;48.130;11.602;2022-10-16T08:51:29;17.70;99.90
37938;DHT22;23763;48.130;11.602;2022-10-16T08:54:06;17.80;99.90
37938;DHT22;23763;48.130;11.602;2022-10-16T08:56:32;17.90;99.90
37938;DHT22;23763;48.130;11.602;2022-10-16T08:58:59;18.00;99.90
37938;DHT22;23763;48.130;11.602;2022-10-16T09:01:44;18.20;99.90
37938;DHT22;23763;48.130;11.602;2022-10-16T09:10:18;18.40;99.90
37938;DHT22;23763;48.130;11.602;2022-10-16T09:12:54;18.50;99.90
37938;DHT22;23763;48.130;11.602;2022-10-16T09:16:13;18.60;99.90
37938;DHT22;23763;48.130;11.602;2022-10-16T09:20:59;18.80;99.90
37938;DHT22;23763;48.130;11.602;2022-10-16T09:23:29;18.90;99.90
37938;DHT22;23763;48.130;11.602;2022-10-16T09:25:56;19.00;99.90
37938;DHT22;23763;48.130;11.602;2022-10-16T09:28:33;19.10;99.90
37938;DHT22;23763;48.130;11.602;2022-10-16T09:30:59;19.20;99.90
37938;DHT22;23763;48.130;11.602;2022-10-16T09:33:33;19.30;99.90
37938;DHT22;23763;48.130;11.602;2022-10-16T09:36:02;19.30;99.90
37938;DHT22;23763;48.130;11.602;2022-10-16T09:40:56;19.40;99.90
37938;DHT22;23763;48.130;11.602;2022-10-16T09:43:38;19.40;99.90
37938;DHT22;23763;48.130;11.602;2022-10-16T09:46:08;19.60;99.90
37938;DHT22;23763;48.130;11.602;2022-10-16T09:48:43;19.60;99.90
37938;DHT22;23763;48.130;11.602;2022-10-16T09:51:29;19.70;99.90
37938;DHT22;23763;48.130;11.602;2022-10-16T09:54:00;19.70;99.90
37938;DHT22;23763;48.130;11.602;2022-10-16T09:56:30;19.70;99.90
37938;DHT22;23763;48.130;11.602;2022-10-16T09:59:00;19.90;99.90
37938;DHT22;23763;48.130;11.602;2022-10-16T10:01:35;19.90;99.90
37938;DHT22;23763;48.130;11.602;2022-10-16T10:04:03;19.90;99.90
37938;DHT22;23763;48.130;11.602;2022-10-16T10:06:53;19.90;99.90
37938;DHT22;23763;48.130;11.602;2022-10-16T10:16:44;20.20;99.90
37938;DHT22;23763;48.130;11.602;2022-10-16T10:19:21;20.30;99.90
37938;DHT22;23763;48.130;11.602;2022-10-16T10:21:49;20.30;99.90
37938;DHT22;23763;48.130;11.602;2022-10-16T10:24:16;20.40;99.90
37938;DHT22;23763;48.130;11.602;2022-10-16T10:29:37;20.50;99.90
37938;DHT22;23763;48.130;11.602;2022-10-16T10:32:31;20.70;99.90
37938;DHT22;23763;48.130;11.602;2022-10-16T10:35:25;20.80;99.90
37938;DHT22;23763;48.130;11.602;2022-10-16T10:40:52;21.10;99.90
37938;DHT22;23763;48.130;11.602;2022-10-16T10:46:02;21.30;99.90
37938;DHT22;23763;48.130;11.602;2022-10-16T10:48:45;21.40;99.90
37938;DHT22;23763;48.130;11.602;2022-10-16T10:54:03;21.50;99.90
37938;DHT22;23763;48.130;11.602;2022-10-16T10:56:48;21.60;99.90
37938;DHT22;23763;48.130;11.602;2022-10-16T11:02:32;21.70;99.90
37938;DHT22;23763;48.130;11.602;2022-10-16T11:05:21;21.90;99.90
37938;DHT22;23763;48.130;11.602;2022-10-16T11:08:12;21.90;99.90
37938;DHT22;23763;48.130;11.602;2022-10-16T11:10:58;21.90;99.90
37938;DHT22;23763;48.130;11.602;2022-10-16T11:16:24;22.00;99.90
37938;DHT22;23763;48.130;11.602;2022-10-16T11:19:14;22.10;99.90
37938;DHT22;23763;48.130;11.602;2022-10-16T11:21:47;22.10;99.90
37938;DHT22;23763;48.130;11.602;2022-10-16T11:24:46;22.20;99.90
37938;DHT22;23763;48.130;11.602;2022-10-16T11:27:17;22.30;99.90
37938;DHT22;23763;48.130;11.602;2022-10-16T11:29:51;22.30;99.90
37938;DHT22;23763;48.130;11.602;2022-10-16T11:32:38;22.40;99.90
37938;DHT22;23763;48.130;11.602;2022-10-16T11:35:17;22.40;99.90
37938;DHT22;23763;48.130;11.602;2022-10-16T11:37:46;22.50;99.90
37938;DHT22;23763;48.130;11.602;2022-10-16T11:40:24;22.50;99.90
37938;DHT22;23763;48.130;11.602;2022-10-16T11:42:57;22.50;99.90
37938;DHT22;23763;48.130;11.602;2022-10-16T11:45:45;22.60;99.90
37938;DHT22;23763;48.130;11.602;2022-10-16T11:50:54;22.80;99.90
37938;DHT22;23763;48.130;11.602;2022-10-16T11:56:25;23.10;99.90
37938;DHT22;23763;48.130;11.602;2022-10-16T11:59:05;23.20;99.90
37938;DHT22;23763;48.130;11.602;2022-10-16T12:01:46;23.30;99.00
37938;DHT22;23763;48.130;11.602;2022-10-16T12:06:51;23.40;98.60
37938;DHT22;23763;48.130;11.602;2022-10-16T12:09:22;23.40;98.90
37938;DHT22;23763;48.130;11.602;2022-10-16T12:11:50;23.40;98.10
37938;DHT22;23763;48.130;11.602;2022-10-16T12:19:31;23.50;97.20
37938;DHT22;23763;48.130;11.602;2022-10-16T12:22:00;23.60;96.90
37938;DHT22;23763;48.130;11.602;2022-10-16T12:24:34;23.70;97.80
37938;DHT22;23763;48.130;11.602;2022-10-16T12:27:02;23.80;97.60
37938;DHT22;23763;48.130;11.602;2022-10-16T12:29:37;23.80;98.60
37938;DHT22;23763;48.130;11.602;2022-10-16T12:34:48;23.90;96.80
37938;DHT22;23763;48.130;11.602;2022-10-16T12:37:25;23.80;96.70
37938;DHT22;23763;48.130;11.602;2022-10-16T12:39:53;23.70;96.50
37938;DHT22;23763;48.130;11.602;2022-10-16T12:42:23;23.60;97.10
37938;DHT22;23763;48.130;11.602;2022-10-16T12:44:49;23.50;97.60
37938;DHT22;23763;48.130;11.602;2022-10-16T12:47:24;23.40;97.90
37938;DHT22;23763;48.130;11.602;2022-10-16T12:50:01;23.40;97.70
37938;DHT22;23763;48.130;11.602;2022-10-16T12:52:37;23.40;97.70
37938;DHT22;23763;48.130;11.602;2022-10-16T12:55:04;23.40;96.90
37938;DHT22;23763;48.130;11.602;2022-10-16T12:57:59;23.30;98.00
37938;DHT22;23763;48.130;11.602;2022-10-16T13:09:38;23.40;95.70
37938;DHT22;23763;48.130;11.602;2022-10-16T13:12:04;23.30;97.40
37938;DHT22;23763;48.130;11.602;2022-10-16T13:17:38;23.40;96.30
37938;DHT22;23763;48.130;11.602;2022-10-16T13:26:24;23.30;96.30
37938;DHT22;23763;48.130;11.602;2022-10-16T13:28:52;23.30;97.10
37938;DHT22;23763;48.130;11.602;2022-10-16T13:31:23;23.30;96.60
37938;DHT22;23763;48.130;11.602;2022-10-16T13:33:52;23.30;96.60
37938;DHT22;23763;48.130;11.602;2022-10-16T13:36:34;23.30;96.70
37938;DHT22;23763;48.130;11.602;2022-10-16T13:39:29;23.20;96.90
37938;DHT22;23763;48.130;11.602;2022-10-16T13:42:10;23.20;96.20
37938;DHT22;23763;48.130;11.602;2022-10-16T13:44:43;23.10;97.30
37938;DHT22;23763;48.130;11.602;2022-10-16T13:47:22;23.00;97.50
37938;DHT22;23763;48.130;11.602;2022-10-16T13:50:11;23.00;97.20
37938;DHT22;23763;48.130;11.602;2022-10-16T13:52:37;23.10;96.70
37938;DHT22;23763;48.130;11.602;2022-10-16T13:55:04;23.10;96.50
37938;DHT22;23763;48.130;11.602;2022-10-16T13:57:35;23.20;97.60
37938;DHT22;23763;48.130;11.602;2022-10-16T14:00:01;23.00;98.20
37938;DHT22;23763;48.130;11.602;2022-10-16T14:02:31;22.90;97.80
37938;DHT22;23763;48.130;11.602;2022-10-16T14:05:01;23.00;97.00
37938;DHT22;23763;48.130;11.602;2022-10-16T14:07:30;23.10;96.90
37938;DHT22;23763;48.130;11.602;2022-10-16T14:10:04;23.00;97.10
37938;DHT22;23763;48.130;11.602;2022-10-16T14:12:30;23.00;98.20
37938;DHT22;23763;48.130;11.602;2022-10-16T14:14:57;22.90;97.40
37938;DHT22;23763;48.130;11.602;2022-10-16T14:17:29;22.90;96.60
37938;DHT22;23763;48.130;11.602;2022-10-16T14:19:58;22.90;97.30
37938;DHT22;23763;48.130;11.602;2022-10-16T14:22:38;22.90;96.80
37938;DHT22;23763;48.130;11.602;2022-10-16T14:27:56;22.90;97.50
37938;DHT22;23763;48.130;11.602;2022-10-16T14:30:22;22.90;96.60
37938;DHT22;23763;48.130;11.602;2022-10-16T14:32:55;22.90;96.70
37938;DHT22;23763;48.130;11.602;2022-10-16T14:35:31;23.00;96.10
37938;DHT22;23763;48.130;11.602;2022-10-16T14:37:58;23.00;96.40
37938;DHT22;23763;48.130;11.602;2022-10-16T14:40:26;23.00;96.40
37938;DHT22;23763;48.130;11.602;2022-10-16T14:42:53;23.00;96.40
37938;DHT22;23763;48.130;11.602;2022-10-16T14:45:20;23.00;96.50
37938;DHT22;23763;48.130;11.602;2022-10-16T14:47:56;23.00;96.40
37938;DHT22;23763;48.130;11.602;2022-10-16T14:50:22;23.00;96.10
37938;DHT22;23763;48.130;11.602;2022-10-16T14:52:48;23.00;96.00
37938;DHT22;23763;48.130;11.602;2022-10-16T14:55:29;22.90;95.60
37938;DHT22;23763;48.130;11.602;2022-10-16T15:01:27;22.80;95.90
37938;DHT22;23763;48.130;11.602;2022-10-16T15:04:09;22.80;96.00
37938;DHT22;23763;48.130;11.602;2022-10-16T15:09:42;22.60;96.80
37938;DHT22;23763;48.130;11.602;2022-10-16T15:15:47;22.40;97.20
37938;DHT22;23763;48.130;11.602;2022-10-16T15:18:48;22.20;98.10
37938;DHT22;23763;48.130;11.602;2022-10-16T15:21:40;22.20;98.00
37938;DHT22;23763;48.130;11.602;2022-10-16T15:24:20;22.30;98.30
37938;DHT22;23763;48.130;11.602;2022-10-16T15:26:54;22.20;98.70
37938;DHT22;23763;48.130;11.602;2022-10-16T15:29:37;22.10;99.10
37938;DHT22;23763;48.130;11.602;2022-10-16T15:35:13;21.80;99.70
37938;DHT22;23763;48.130;11.602;2022-10-16T15:37:57;21.80;99.90
37938;DHT22;23763;48.130;11.602;2022-10-16T15:40:52;21.70;99.90
37938;DHT22;23763;48.130;11.602;2022-10-16T15:46:42;21.80;99.90
37938;DHT22;23763;48.130;11.602;2022-10-16T15:49:17;21.50;99.90
37938;DHT22;23763;48.130;11.602;2022-10-16T15:51:58;21.50;99.90
37938;DHT22;23763;48.130;11.602;2022-10-16T15:54:38;21.40;99.90
37938;DHT22;23763;48.130;11.602;2022-10-16T15:57:28;21.40;99.90
37938;DHT22;23763;48.130;11.602;2022-10-16T15:59:53;21.20;99.90
37938;DHT22;23763;48.130;11.602;2022-10-16T16:02:19;21.10;99.90
37938;DHT22;23763;48.130;11.602;2022-10-16T16:04:45;21.10;99.90
37938;DHT22;23763;48.130;11.602;2022-10-16T16:07:10;20.90;99.90
37938;DHT22;23763;48.130;11.602;2022-10-16T16:09:36;20.90;99.90
37938;DHT22;23763;48.130;11.602;2022-10-16T16:12:02;20.90;99.90
37938;DHT22;23763;48.130;11.602;2022-10-16T16:14:29;20.80;99.90
37938;DHT22;23763;48.130;11.602;2022-10-16T16:16:55;20.70;99.90
37938;DHT22;23763;48.130;11.602;2022-10-16T16:19:21;20.80;99.90
37938;DHT22;23763;48.130;11.602;2022-10-16T16:21:47;20.60;99.90
37938;DHT22;23763;48.130;11.602;2022-10-16T16:24:13;20.50;99.90
37938;DHT22;23763;48.130;11.602;2022-10-16T16:26:39;20.50;99.90
37938;DHT22;23763;48.130;11.602;2022-10-16T16:29:12;20.40;99.90
37938;DHT22;23763;48.130;11.602;2022-10-16T16:31:38;20.40;99.90
37938;DHT22;23763;48.130;11.602;2022-10-16T16:34:04;20.40;99.90
37938;DHT22;23763;48.130;11.602;2022-10-16T16:36:29;20.30;99.90
37938;DHT22;23763;48.130;11.602;2022-10-16T16:38:56;20.30;99.90
37938;DHT22;23763;48.130;11.602;2022-10-16T16:41:27;20.20;99.90
37938;DHT22;23763;48.130;11.602;2022-10-16T16:43:54;20.20;99.90
37938;DHT22;23763;48.130;11.602;2022-10-16T16:46:20;20.20;99.90
37938;DHT22;23763;48.130;11.602;2022-10-16T16:48:47;20.10;99.90
37938;DHT22;23763;48.130;11.602;2022-10-16T16:51:16;20.10;99.90
37938;DHT22;23763;48.130;11.602;2022-10-16T16:53:47;20.00;99.90
37938;DHT22;23763;48.130;11.602;2022-10-16T16:56:13;19.90;99.90
37938;DHT22;23763;48.130;11.602;2022-10-16T16:58:39;19.90;99.90
37938;DHT22;23763;48.130;11.602;2022-10-16T17:01:07;19.80;99.90
37938;DHT22;23763;48.130;11.602;2022-10-16T17:03:35;19.80;99.90
37938;DHT22;23763;48.130;11.602;2022-10-16T17:06:03;19.70;99.90
37938;DHT22;23763;48.130;11.602;2022-10-16T17:08:30;19.60;99.90
37938;DHT22;23763;48.130;11.602;2022-10-16T17:10:56;19.60;99.90
37938;DHT22;23763;48.130;11.602;2022-10-16T17:13:31;19.60;99.90
37938;DHT22;23763;48.130;11.602;2022-10-16T17:15:57;19.50;99.90
37938;DHT22;23763;48.130;11.602;2022-10-16T17:18:23;19.50;99.90
37938;DHT22;23763;48.130;11.602;2022-10-16T17:20:50;19.60;99.90
37938;DHT22;23763;48.130;11.602;2022-10-16T17:23:17;19.50;99.90
37938;DHT22;23763;48.130;11.602;2022-10-16T17:25:45;19.50;99.90
37938;DHT22;23763;48.130;11.602;2022-10-16T17:28:12;19.40;99.90